Terminal Aerodrome Forecast
Issued by NWS

Current Version | Previous Version | Text Only | Print | Product List | Glossary Off
Versions: 1 2 3 4 5 6 7 8 9 10 11 12 13 14 15 16 17 18 19 20 21 22 23 24

000
FTUS41 KILN 300412 AAA
TAFLUK
TAF AMD
KLUK 300412Z 3004/3024 00000KT 2SM BR SKC
      TEMPO 3007/3011 1/2SM FG
     FM301400 31007KT P6SM SCT050
     FM302200 34003KT P6SM SKC=

USA.gov is the U.S. government's official web portal to all federal, state and local government web resources and services.